Sarzana / Luni Military Airport LIQW

Flugplatz Daten

Name: Sarzana / Luni Military Airport

Ident: LIQW

Lat: 44,08800125

Long: 9,987950325

Platzhöhe: 45 ft

IataCode:

City: Sarzana

Metar

2021/08/05 11:55
LIQW 051155Z VRB07KT 9999 SCT025 24/18 Q1009

Taf

Gewünschte Webcam nicht vorhanden? Dann fügen Sie eine hinzu. Sie wird dann so schnell wie möglich freigeschaltet
Url: Title: